Time;durP1;ratioP1;P1;durP2;ratioP2;P2;SDS_P1;SDS_P2;PMS_P1;PMS_P2;Temp;Humidity;BMP_temperature;BMP_pressure;BME280_temperature;BME280_humidity;BME280_pressure;Samples;Min_cycle;Max_cycle;Signal;HPM_P1;HPM_P2
2022/04/15 00:01:12;;;;;;;7.85;4.68;;;;;;;5.02;100.00;102548.44;5033361;28;20036;-66
2022/04/15 00:03:39;;;;;;;5.65;3.92;;;;;;;4.99;100.00;102543.19;5033903;28;20040;-67
2022/04/15 00:06:08;;;;;;;7.30;4.20;;;;;;;4.99;100.00;102552.81;5051771;28;20048;-67
2022/04/15 00:08:35;;;;;;;5.82;3.55;;;;;;;4.95;100.00;102546.66;5055232;28;20483;-67
2022/04/15 00:11:01;;;;;;;5.63;4.20;;;;;;;4.93;100.00;102548.41;5037229;28;20062;-67
2022/04/15 00:13:29;;;;;;;5.20;3.70;;;;;;;4.90;100.00;102545.75;5055792;28;20032;-67
2022/04/15 00:16:13;;;;;;;7.00;4.18;;;;;;;4.90;100.00;102553.63;5009691;28;20035;-66
2022/04/15 00:18:39;;;;;;;4.70;3.75;;;;;;;4.88;100.00;102552.75;5038356;28;20036;-67
2022/04/15 00:21:05;;;;;;;6.53;4.15;;;;;;;4.88;100.00;102551.03;5026903;28;20089;-67
2022/04/15 00:23:31;;;;;;;7.78;4.40;;;;;;;4.88;100.00;102550.13;5055351;28;20033;-67
2022/04/15 00:25:57;;;;;;;7.90;4.28;;;;;;;4.88;100.00;102551.03;5056309;28;20035;-67
2022/04/15 00:28:23;;;;;;;6.65;4.10;;;;;;;4.88;100.00;102551.03;5055959;28;20513;-67
2022/04/15 00:30:49;;;;;;;4.22;3.45;;;;;;;4.86;100.00;102549.25;5054941;28;20159;-67
2022/04/15 00:33:15;;;;;;;5.60;4.07;;;;;;;4.83;100.00;102546.59;5037730;28;20036;-66
2022/04/15 00:35:40;;;;;;;5.15;3.80;;;;;;;4.81;100.00;102564.09;5042413;28;20040;-67
2022/04/15 00:38:06;;;;;;;6.05;3.85;;;;;;;4.79;100.00;102560.59;5056535;28;20029;-67
2022/04/15 00:40:32;;;;;;;6.88;3.95;;;;;;;4.78;100.00;102564.06;5055228;28;20399;-66
2022/04/15 00:42:57;;;;;;;5.40;3.75;;;;;;;4.76;100.00;102556.19;5039864;28;20071;-67
2022/04/15 00:45:23;;;;;;;6.20;4.03;;;;;;;4.76;100.00;102553.56;5055171;28;20245;-67
2022/04/15 00:47:53;;;;;;;5.95;4.00;;;;;;;4.73;100.00;102557.03;5055727;28;20120;-67
2022/04/15 00:50:22;;;;;;;5.53;3.80;;;;;;;4.70;100.00;102551.78;5053207;28;20666;-67
2022/04/15 00:52:51;;;;;;;6.30;3.97;;;;;;;4.68;100.00;102553.50;5055336;28;20028;-66
2022/04/15 00:55:18;;;;;;;5.88;3.70;;;;;;;4.66;100.00;102560.50;5036951;28;20123;-66
2022/04/15 00:57:50;;;;;;;8.00;4.10;;;;;;;4.64;100.00;102561.34;5037803;28;20186;-66
2022/04/15 01:00:16;;;;;;;5.25;4.03;;;;;;;4.61;100.00;102568.34;5054173;28;20427;-66
2022/04/15 01:02:43;;;;;;;6.18;3.85;;;;;;;4.62;100.00;102569.19;5038672;28;20055;-66
2022/04/15 01:05:10;;;;;;;6.32;3.92;;;;;;;4.59;100.00;102574.44;5035334;28;20060;-66
2022/04/15 01:07:42;;;;;;;5.50;3.70;;;;;;;4.57;100.00;102576.19;5055305;28;20480;-66
2022/04/15 01:10:11;;;;;;;6.82;3.90;;;;;;;4.55;100.00;102570.91;5021563;28;20940;-66
2022/04/15 01:12:38;;;;;;;6.53;3.75;;;;;;;4.55;100.00;102577.91;5037240;28;20027;-66
2022/04/15 01:15:07;;;;;;;5.32;3.85;;;;;;;4.58;100.00;102585.81;5025464;28;20048;-66
2022/04/15 01:17:36;;;;;;;5.22;3.72;;;;;;;4.60;100.00;102589.31;5037147;28;20121;-66
2022/04/15 01:20:03;;;;;;;5.75;4.07;;;;;;;4.64;100.00;102583.22;5036140;28;20035;-66
2022/04/15 01:22:37;;;;;;;6.03;3.90;;;;;;;4.69;100.00;102576.25;5037503;28;20059;-66
2022/04/15 01:25:04;;;;;;;6.68;4.28;;;;;;;4.75;100.00;102581.53;5053749;28;20563;-66
2022/04/15 01:27:34;;;;;;;6.70;3.90;;;;;;;4.81;100.00;102580.72;5041260;28;20040;-66
2022/04/15 01:30:00;;;;;;;6.03;3.63;;;;;;;4.87;100.00;102583.38;5036575;28;20024;-66
2022/04/15 01:32:25;;;;;;;6.68;4.00;;;;;;;4.94;100.00;102575.53;5019063;28;20033;-66
2022/04/15 01:34:51;;;;;;;6.07;3.90;;;;;;;4.99;100.00;102574.69;5036627;28;20143;-67
2022/04/15 01:37:20;;;;;;;7.53;3.85;;;;;;;5.06;100.00;102580.84;5054143;28;20036;-66
2022/04/15 01:39:46;;;;;;;5.03;3.88;;;;;;;5.11;100.00;102580.88;5054420;28;20024;-66
2022/04/15 01:42:16;;;;;;;7.47;3.80;;;;;;;5.16;100.00;102580.03;5020325;28;20051;-66
2022/04/15 01:44:42;;;;;;;5.88;4.07;;;;;;;5.22;100.00;102586.22;5020297;28;20033;-66
2022/04/15 01:47:09;;;;;;;6.57;3.95;;;;;;;5.26;100.00;102585.31;5034679;28;20028;-66
2022/04/15 01:49:35;;;;;;;6.88;3.80;;;;;;;5.27;100.00;102585.34;5024016;28;20132;-66
2022/04/15 01:52:00;;;;;;;5.68;3.90;;;;;;;5.30;100.00;102595.00;5040428;28;20025;-66
2022/04/15 01:54:29;;;;;;;4.15;3.20;;;;;;;5.32;100.00;102584.50;5053709;28;21539;-66
2022/04/15 01:56:55;;;;;;;6.15;3.70;;;;;;;5.34;100.00;102588.00;5054171;28;20123;-66
2022/04/15 01:59:21;;;;;;;4.80;3.53;;;;;;;5.35;100.00;102590.66;5036064;28;20092;-66
2022/04/15 02:01:47;;;;;;;6.35;3.95;;;;;;;5.38;100.00;102589.75;5053428;28;20025;-66
2022/04/15 02:04:12;;;;;;;6.07;3.53;;;;;;;5.42;100.00;102594.16;5023537;28;20035;-65
2022/04/15 02:06:37;;;;;;;8.07;3.85;;;;;;;5.45;100.00;102594.16;5033107;28;20040;-66
2022/04/15 02:09:03;;;;;;;5.70;3.65;;;;;;;5.45;100.00;102588.91;5021002;28;20032;-66
2022/04/15 02:11:29;;;;;;;5.32;3.38;;;;;;;5.49;100.00;102589.81;5034883;28;20085;-66
2022/04/15 02:13:54;;;;;;;5.57;4.10;;;;;;;5.50;100.00;102592.44;5037574;28;20131;-66
2022/04/15 02:16:20;;;;;;;5.60;3.88;;;;;;;5.54;100.00;102596.84;5053857;28;20486;-66
2022/04/15 02:18:45;;;;;;;7.28;3.08;;;;;;;5.58;100.00;102593.34;5035061;28;20036;-66
2022/04/15 02:21:11;;;;;;;4.07;3.42;;;;;;;5.62;100.00;102594.22;5053946;28;20028;-67
2022/04/15 02:23:36;;;;;;;5.63;4.15;;;;;;;5.67;100.00;102600.38;5053254;28;20029;-67
2022/04/15 02:26:02;;;;;;;5.03;3.47;;;;;;;5.70;100.00;102592.53;5008200;28;20222;-67
2022/04/15 02:28:27;;;;;;;5.18;3.70;;;;;;;5.74;100.00;102601.28;5053037;28;20028;-67
2022/04/15 02:30:53;;;;;;;4.57;3.50;;;;;;;5.76;100.00;102590.75;5033811;28;20439;-67
2022/04/15 02:33:18;;;;;;;4.80;2.95;;;;;;;5.81;100.00;102602.16;5052765;28;20032;-67
2022/04/15 02:35:44;;;;;;;5.10;3.33;;;;;;;5.84;100.00;102603.06;5052670;28;20552;-67
2022/04/15 02:38:10;;;;;;;4.35;3.30;;;;;;;5.87;100.00;102602.19;5053524;28;20028;-67
2022/04/15 02:40:35;;;;;;;5.40;4.03;;;;;;;5.91;100.00;102608.34;5052991;28;20043;-67
2022/04/15 02:43:01;;;;;;;4.32;3.45;;;;;;;5.93;100.00;102607.47;5024515;28;20469;-67
2022/04/15 02:45:28;;;;;;;4.72;3.60;;;;;;;5.95;100.00;102610.97;5034024;28;20079;-67
2022/04/15 02:47:54;;;;;;;7.20;3.30;;;;;;;5.97;100.00;102613.59;5052532;28;20490;-67
2022/04/15 02:50:20;;;;;;;4.65;3.10;;;;;;;6.00;100.00;102610.13;5053319;28;20033;-67
2022/04/15 02:52:45;;;;;;;4.97;3.92;;;;;;;6.03;100.00;102608.41;5030133;28;20032;-67
2022/04/15 02:55:10;;;;;;;4.38;2.95;;;;;;;6.07;100.00;102610.16;5053320;28;20627;-67
2022/04/15 02:57:36;;;;;;;4.88;3.40;;;;;;;6.11;100.00;102611.91;5034001;28;20036;-67
2022/04/15 03:00:03;;;;;;;4.30;3.60;;;;;;;6.16;100.00;102616.31;5053492;28;20036;-67
2022/04/15 03:02:33;;;;;;;4.22;3.20;;;;;;;6.21;100.00;102614.56;5035609;28;20102;-67
2022/04/15 03:05:00;;;;;;;3.72;2.80;;;;;;;6.26;100.00;102610.16;5051832;28;20071;-67
2022/04/15 03:07:25;;;;;;;6.93;3.00;;;;;;;6.30;100.00;102603.16;5049390;28;20048;-67
2022/04/15 03:09:51;;;;;;;3.95;2.80;;;;;;;6.33;100.00;102614.56;5049057;28;20471;-67
2022/04/15 03:12:16;;;;;;;3.80;3.20;;;;;;;6.37;100.00;102610.19;5051690;28;20055;-67
2022/04/15 03:14:42;;;;;;;3.60;2.80;;;;;;;6.40;100.00;102618.09;5053635;28;20096;-67
2022/04/15 03:17:08;;;;;;;3.97;3.03;;;;;;;6.43;100.00;102617.22;5053143;28;20112;-67
2022/04/15 03:19:33;;;;;;;3.38;2.90;;;;;;;6.47;100.00;102619.84;5052090;28;20029;-68
2022/04/15 03:22:00;;;;;;;5.15;3.00;;;;;;;6.50;100.00;102614.56;5054030;28;20036;-68
2022/04/15 03:24:25;;;;;;;4.32;3.00;;;;;;;6.56;100.00;102613.72;5052435;28;20028;-67
2022/04/15 03:26:51;;;;;;;3.10;2.60;;;;;;;6.58;100.00;102613.72;5052228;28;20410;-66
2022/04/15 03:29:16;;;;;;;3.60;2.90;;;;;;;6.60;100.00;102612.81;5052915;28;20046;-66
2022/04/15 03:31:42;;;;;;;3.67;2.55;;;;;;;6.65;100.00;102618.97;5053384;28;20056;-66
2022/04/15 03:34:07;;;;;;;4.15;3.00;;;;;;;6.69;100.00;102624.25;5052380;28;20535;-66
2022/04/15 03:36:33;;;;;;;4.63;3.15;;;;;;;6.70;100.00;102618.94;5051157;28;20956;-67
2022/04/15 03:38:58;;;;;;;5.28;3.35;;;;;;;6.72;100.00;102618.97;5051551;28;20032;-67
2022/04/15 03:41:24;;;;;;;6.47;3.38;;;;;;;6.73;100.00;102618.97;5052366;28;20100;-67
2022/04/15 03:43:50;;;;;;;4.88;3.17;;;;;;;6.78;100.00;102624.22;5034276;28;20789;-67
2022/04/15 03:46:16;;;;;;;6.82;3.22;;;;;;;6.79;100.00;102629.50;5019325;28;20048;-68
2022/04/15 03:48:42;;;;;;;5.30;3.28;;;;;;;6.81;100.00;102626.84;5054016;28;20402;-67
2022/04/15 03:51:11;;;;;;;4.55;2.80;;;;;;;6.79;100.00;102626.88;5051477;28;20027;-67
2022/04/15 03:53:37;;;;;;;4.68;2.80;;;;;;;6.81;100.00;102640.00;5051791;28;20020;-67
2022/04/15 03:56:03;;;;;;;2.70;2.45;;;;;;;6.82;100.00;102646.16;5053883;28;20567;-65
2022/04/15 03:58:29;;;;;;;2.95;2.25;;;;;;;6.83;100.00;102648.78;5033935;28;20106;-67
2022/04/15 04:00:55;;;;;;;2.47;2.25;;;;;;;6.83;100.00;102638.25;5033668;28;20101;-66
2022/04/15 04:03:21;;;;;;;3.20;1.85;;;;;;;6.85;100.00;102644.41;5053447;28;20074;-67
2022/04/15 04:05:47;;;;;;;3.67;2.33;;;;;;;6.87;100.00;102650.53;5051797;28;20510;-67
2022/04/15 04:08:12;;;;;;;3.60;2.33;;;;;;;6.87;100.00;102655.78;5018667;28;20105;-66
2022/04/15 04:10:38;;;;;;;3.08;2.08;;;;;;;6.88;100.00;102654.94;5052528;28;20484;-67
2022/04/15 04:13:04;;;;;;;4.45;2.55;;;;;;;6.88;100.00;102661.94;5031994;28;20052;-67
2022/04/15 04:15:31;;;;;;;3.30;2.15;;;;;;;6.87;100.00;102663.69;5032961;28;20032;-67
2022/04/15 04:17:56;;;;;;;3.38;2.30;;;;;;;6.84;100.00;102663.72;5031773;28;20039;-67
2022/04/15 04:20:22;;;;;;;3.20;2.47;;;;;;;6.85;100.00;102667.19;5050839;28;20473;-65
2022/04/15 04:22:48;;;;;;;2.85;2.35;;;;;;;6.86;100.00;102672.47;5032357;28;20081;-67
2022/04/15 04:25:13;;;;;;;5.25;2.80;;;;;;;6.87;100.00;102671.59;5011641;28;20084;-67
2022/04/15 04:27:40;;;;;;;4.53;2.75;;;;;;;6.88;100.00;102667.22;5033917;28;20028;-67
2022/04/15 04:30:07;;;;;;;3.15;2.55;;;;;;;6.88;100.00;102672.47;5016905;28;20032;-67
2022/04/15 04:32:33;;;;;;;3.72;2.50;;;;;;;6.89;100.00;102675.13;5033162;28;20039;-67
2022/04/15 04:34:58;;;;;;;3.47;2.78;;;;;;;6.90;100.00;102676.00;5033533;28;20036;-67
2022/04/15 04:37:24;;;;;;;3.67;2.85;;;;;;;6.90;100.00;102673.34;5033977;28;20502;-67
2022/04/15 04:39:49;;;;;;;4.93;2.85;;;;;;;6.90;100.00;102674.25;5039062;28;20021;-66
2022/04/15 04:42:15;;;;;;;3.85;2.78;;;;;;;6.91;100.00;102686.53;5052417;28;20032;-66
2022/04/15 04:44:41;;;;;;;3.20;2.60;;;;;;;6.93;100.00;102691.81;5049361;28;20717;-67
2022/04/15 04:47:07;;;;;;;4.05;2.92;;;;;;;6.92;100.00;102688.28;5033732;28;20114;-65
2022/04/15 04:49:33;;;;;;;4.03;2.85;;;;;;;6.95;100.00;102691.78;5022559;28;20032;-68
2022/04/15 04:51:59;;;;;;;3.78;2.90;;;;;;;6.91;100.00;102704.97;5005886;28;20448;-67
2022/04/15 04:54:24;;;;;;;3.35;2.00;;;;;;;6.90;100.00;102695.31;5034215;28;20031;-68
2022/04/15 04:56:50;;;;;;;2.90;2.28;;;;;;;6.89;100.00;102706.72;5018255;28;20478;-65
2022/04/15 04:59:16;;;;;;;3.60;2.58;;;;;;;6.91;100.00;102698.81;5035658;28;20032;-65
2022/04/15 05:01:41;;;;;;;5.63;3.40;;;;;;;6.91;100.00;102709.34;5054037;28;20483;-66
2022/04/15 05:04:07;;;;;;;7.28;4.10;;;;;;;6.92;100.00;102719.88;5054503;28;20025;-66
2022/04/15 05:06:32;;;;;;;8.32;4.35;;;;;;;6.92;100.00;102714.59;5036037;28;21051;-66
2022/04/15 05:08:58;;;;;;;6.68;4.00;;;;;;;6.90;100.00;102732.16;5038456;28;20130;-67
2022/04/15 05:11:23;;;;;;;9.43;5.63;;;;;;;6.91;100.00;102731.28;5053601;28;20041;-67
2022/04/15 05:13:50;;;;;;;7.90;4.57;;;;;;;6.87;100.00;102729.53;5052919;28;20059;-67
2022/04/15 05:16:16;;;;;;;8.82;5.30;;;;;;;6.85;100.00;102728.66;5053792;28;20062;-67
2022/04/15 05:18:41;;;;;;;8.73;5.00;;;;;;;6.82;100.00;102736.56;5020500;28;20068;-66
2022/04/15 05:21:07;;;;;;;7.30;4.55;;;;;;;6.78;100.00;102742.69;5024783;28;20160;-66
2022/04/15 05:23:33;;;;;;;6.93;4.38;;;;;;;6.74;100.00;102743.56;5053796;28;20072;-67
2022/04/15 05:25:58;;;;;;;7.18;4.57;;;;;;;6.72;100.00;102746.22;5053916;28;20327;-67
2022/04/15 05:28:24;;;;;;;6.05;4.07;;;;;;;6.71;100.00;102751.47;5052918;28;20098;-68
2022/04/15 05:30:50;;;;;;;8.75;4.65;;;;;;;6.71;100.00;102762.00;5053883;28;20056;-67
2022/04/15 05:33:15;;;;;;;8.00;4.80;;;;;;;6.72;100.00;102750.59;5041841;28;20056;-67
2022/04/15 05:35:41;;;;;;;5.97;3.97;;;;;;;6.69;100.00;102750.59;5054644;28;20085;-67
2022/04/15 05:38:09;;;;;;;4.45;3.45;;;;;;;6.70;100.00;102762.88;5053747;28;20107;-67
2022/04/15 05:40:35;;;;;;;5.50;3.60;;;;;;;6.68;100.00;102767.22;5053180;28;20144;-67
2022/04/15 05:43:00;;;;;;;4.95;3.35;;;;;;;6.68;100.00;102767.22;5053658;28;20033;-67
2022/04/15 05:45:26;;;;;;;7.13;4.00;;;;;;;6.68;100.00;102781.28;5025008;28;20070;-68
2022/04/15 05:47:53;;;;;;;6.05;3.90;;;;;;;6.68;100.00;102781.28;5019925;28;20056;-66
2022/04/15 05:50:19;;;;;;;4.78;3.58;;;;;;;6.68;100.00;102778.66;5036168;28;20036;-66
2022/04/15 05:52:45;;;;;;;5.15;3.45;;;;;;;6.69;100.00;102784.81;5037030;28;20036;-67
2022/04/15 05:55:11;;;;;;;3.97;3.28;;;;;;;6.69;100.00;102783.03;5053627;28;20051;-67
2022/04/15 05:57:36;;;;;;;6.72;3.65;;;;;;;6.70;100.00;102786.56;5054052;28;20033;-66
2022/04/15 06:00:04;;;;;;;4.50;3.22;;;;;;;6.69;100.00;102784.81;5034914;28;20128;-66
2022/04/15 06:02:30;;;;;;;5.57;3.17;;;;;;;6.71;100.00;102790.94;5055367;28;20063;-67
2022/04/15 06:04:55;;;;;;;4.03;2.88;;;;;;;6.70;100.00;102790.06;5054037;28;20032;-67
2022/04/15 06:07:20;;;;;;;3.90;3.10;;;;;;;6.71;100.00;102790.94;5054002;28;20040;-67
2022/04/15 06:09:46;;;;;;;3.03;2.72;;;;;;;6.73;100.00;102799.72;5053766;28;20036;-66
2022/04/15 06:12:12;;;;;;;4.00;3.00;;;;;;;6.72;100.00;102797.97;5047360;28;20608;-66
2022/04/15 06:14:37;;;;;;;3.90;3.05;;;;;;;6.72;100.00;102797.97;5044031;28;20487;-66
2022/04/15 06:17:03;;;;;;;4.25;3.25;;;;;;;6.75;100.00;102805.88;5053306;28;20032;-68
2022/04/15 06:19:29;;;;;;;3.38;2.83;;;;;;;6.78;100.00;102804.13;5052374;28;20489;-68
2022/04/15 06:21:54;;;;;;;4.00;3.05;;;;;;;6.80;100.00;102801.50;5039719;28;20043;-68
2022/04/15 06:24:20;;;;;;;3.20;2.75;;;;;;;6.81;100.00;102803.22;5051700;28;20029;-68
2022/04/15 06:26:46;;;;;;;3.20;2.40;;;;;;;6.87;100.00;102808.50;5053041;28;20040;-68
2022/04/15 06:29:11;;;;;;;3.22;2.30;;;;;;;6.87;100.00;102819.03;5052551;28;20044;-68
2022/04/15 06:31:37;;;;;;;2.45;2.20;;;;;;;6.87;100.00;102826.94;5031286;28;20269;-68
2022/04/15 06:34:03;;;;;;;2.50;2.05;;;;;;;6.87;100.00;102821.69;5049630;28;20043;-67
2022/04/15 06:36:30;;;;;;;2.40;2.10;;;;;;;6.89;100.00;102827.84;5052827;28;20033;-69
2022/04/15 06:38:55;;;;;;;3.40;2.20;;;;;;;6.97;100.00;102832.25;5049916;28;20036;-69
2022/04/15 06:41:21;;;;;;;2.08;1.88;;;;;;;7.00;100.00;102827.88;5049116;28;20029;-69
2022/04/15 06:43:46;;;;;;;2.45;2.10;;;;;;;7.03;100.00;102829.63;5019856;28;20377;-69
2022/04/15 06:46:11;;;;;;;2.17;1.95;;;;;;;7.05;100.00;102835.78;5051300;28;20743;-69
2022/04/15 06:48:37;;;;;;;2.08;1.88;;;;;;;7.10;100.00;102841.94;5023050;28;20414;-69
2022/04/15 06:51:03;;;;;;;1.80;1.60;;;;;;;7.15;100.00;102842.78;5051769;28;21589;-69
2022/04/15 06:53:29;;;;;;;1.63;1.52;;;;;;;7.16;100.00;102843.69;5052350;28;20036;-69
2022/04/15 06:55:55;;;;;;;1.48;1.30;;;;;;;7.15;100.00;102847.19;5034808;28;20040;-69
2022/04/15 06:58:20;;;;;;;2.20;1.90;;;;;;;7.15;100.00;102853.31;5020867;28;20040;-69
2022/04/15 07:00:46;;;;;;;4.10;2.47;;;;;;;7.12;100.00;102855.97;5033865;28;20426;-69
2022/04/15 07:03:12;;;;;;;3.97;2.50;;;;;;;7.05;100.00;102855.09;5022719;28;20032;-69
2022/04/15 07:05:41;;;;;;;3.58;2.83;;;;;;;7.00;100.00;102861.22;5033789;28;20599;-68
2022/04/15 07:08:09;;;;;;;3.90;2.78;;;;;;;6.97;100.00;102862.09;5011239;28;20040;-69
2022/04/15 07:10:35;;;;;;;3.17;2.70;;;;;;;6.98;100.00;102857.72;5009609;28;20036;-70
2022/04/15 07:13:01;;;;;;;3.70;2.97;;;;;;;6.92;100.00;102855.94;5010140;28;20118;-69
2022/04/15 07:15:27;;;;;;;3.42;2.83;;;;;;;6.89;100.00;102871.72;4995568;28;20030;-76
2022/04/15 07:17:53;;;;;;;4.45;2.97;;;;;;;6.81;100.00;102876.97;5010683;28;20029;-75
2022/04/15 07:20:18;;;;;;;4.45;3.05;;;;;;;6.81;100.00;102869.06;5009641;28;20029;-76
2022/04/15 07:22:44;;;;;;;5.20;3.50;;;;;;;6.82;100.00;102873.47;5011789;28;20101;-73
2022/04/15 07:25:09;;;;;;;5.63;3.47;;;;;;;6.82;100.00;102870.84;5027210;28;20571;-72
2022/04/15 07:27:35;;;;;;;5.20;3.60;;;;;;;6.81;100.00;102869.06;5010371;28;20055;-73
2022/04/15 07:30:01;;;;;;;6.43;3.83;;;;;;;6.84;100.00;102876.09;5009962;28;20170;-73
2022/04/15 07:32:28;;;;;;;5.70;4.10;;;;;;;6.85;100.00;102868.22;4998345;28;20362;-73
2022/04/15 07:34:54;;;;;;;7.95;4.28;;;;;;;6.88;100.00;102873.50;5012793;28;20029;-74
2022/04/15 07:37:20;;;;;;;6.75;4.38;;;;;;;6.90;100.00;102871.75;5010689;28;20038;-73
2022/04/15 07:39:45;;;;;;;7.78;4.38;;;;;;;6.90;100.00;102877.00;5009963;28;20396;-73
2022/04/15 07:42:14;;;;;;;7.13;4.50;;;;;;;6.94;100.00;102877.88;5025982;28;20028;-73
2022/04/15 07:44:40;;;;;;;8.65;4.47;;;;;;;6.97;100.00;102871.75;5008033;28;20029;-73
2022/04/15 07:47:07;;;;;;;8.65;5.15;;;;;;;7.01;100.00;102876.13;5009489;28;20634;-73
2022/04/15 07:49:34;;;;;;;7.88;5.00;;;;;;;7.05;100.00;102877.91;4994459;28;20049;-73
2022/04/15 07:52:01;;;;;;;9.25;5.07;;;;;;;7.09;100.00;102871.78;4995720;28;20111;-72
2022/04/15 07:54:26;;;;;;;10.70;5.82;;;;;;;7.11;100.00;102867.38;5011266;28;20273;-73
2022/04/15 07:56:52;;;;;;;9.32;5.20;;;;;;;7.14;100.00;102874.41;5009641;28;20041;-72
2022/04/15 07:59:19;;;;;;;9.13;5.53;;;;;;;7.15;100.00;102869.13;5008616;28;20033;-72
2022/04/15 08:01:46;;;;;;;9.30;5.28;;;;;;;7.20;100.00;102870.03;5009509;28;20040;-68
2022/04/15 08:04:12;;;;;;;7.25;5.13;;;;;;;7.28;100.00;102877.06;5011642;28;20063;-68
2022/04/15 08:06:37;;;;;;;9.65;5.43;;;;;;;7.39;100.00;102870.03;5027013;28;21026;-68
2022/04/15 08:09:03;;;;;;;9.20;5.15;;;;;;;7.53;100.00;102877.09;5050848;28;20037;-68
2022/04/15 08:11:28;;;;;;;9.05;5.65;;;;;;;7.70;100.00;102875.31;5050285;28;20428;-67
2022/04/15 08:13:55;;;;;;;10.35;5.97;;;;;;;7.91;100.00;102873.53;5050780;28;20037;-68
2022/04/15 08:16:22;;;;;;;9.23;5.72;;;;;;;8.04;100.00;102881.41;5050878;28;20043;-71
2022/04/15 08:18:49;;;;;;;10.02;5.28;;;;;;;8.11;99.94;102881.41;5038060;28;20584;-70
2022/04/15 08:21:15;;;;;;;8.10;5.43;;;;;;;8.17;99.29;102875.22;5048798;28;20114;-71
2022/04/15 08:23:41;;;;;;;10.75;5.65;;;;;;;8.23;98.97;102871.69;5049342;28;20032;-69
2022/04/15 08:26:06;;;;;;;8.70;5.15;;;;;;;8.24;98.26;102873.44;5052841;28;20511;-71
2022/04/15 08:28:32;;;;;;;10.20;5.57;;;;;;;8.33;98.99;102880.47;5003921;28;20116;-72
2022/04/15 08:30:58;;;;;;;8.05;5.05;;;;;;;8.36;98.12;102877.81;5055375;28;20954;-71
2022/04/15 08:33:24;;;;;;;7.78;4.88;;;;;;;8.40;97.56;102877.78;5055636;28;20409;-72
2022/04/15 08:35:49;;;;;;;7.57;4.90;;;;;;;8.42;97.07;102875.16;5053471;28;20410;-73
2022/04/15 08:38:15;;;;;;;6.85;4.82;;;;;;;8.49;97.22;102881.28;5054469;28;20033;-71
2022/04/15 08:40:43;;;;;;;8.20;5.00;;;;;;;8.56;97.27;102881.28;5006731;28;20665;-71
2022/04/15 08:43:10;;;;;;;6.57;4.78;;;;;;;8.63;97.43;102878.63;5035647;28;20035;-71
2022/04/15 08:45:40;;;;;;;6.22;4.30;;;;;;;8.65;96.21;102882.13;5054507;28;20028;-72
2022/04/15 08:48:06;;;;;;;8.00;4.18;;;;;;;8.64;95.49;102880.38;5056057;28;20036;-72
2022/04/15 08:50:32;;;;;;;7.15;4.65;;;;;;;8.63;96.23;102882.16;5052257;28;20126;-72
2022/04/15 08:52:58;;;;;;;5.70;4.28;;;;;;;8.68;96.21;102887.41;5035696;28;20044;-72
2022/04/15 08:55:25;;;;;;;7.55;4.70;;;;;;;8.74;96.74;102894.41;5037045;28;20131;-72
2022/04/15 08:57:51;;;;;;;6.57;4.70;;;;;;;8.76;95.79;102898.78;5053142;28;20036;-72
2022/04/15 09:00:19;;;;;;;5.95;3.92;;;;;;;8.77;95.76;102897.03;5054692;28;20390;-72
2022/04/15 09:02:45;;;;;;;6.05;4.18;;;;;;;8.77;95.47;102897.91;5050364;28;20068;-72
2022/04/15 09:05:13;;;;;;;6.90;4.05;;;;;;;8.74;93.92;102897.03;5034315;28;20037;-73
2022/04/15 09:07:39;;;;;;;4.25;3.28;;;;;;;8.74;95.43;102903.22;5055215;28;20473;-74
2022/04/15 09:10:06;;;;;;;5.28;3.58;;;;;;;8.73;93.96;102906.75;5025028;28;20377;-73
2022/04/15 09:12:36;;;;;;;5.75;3.45;;;;;;;8.78;94.99;102902.28;5011716;28;20390;-72
2022/04/15 09:15:01;;;;;;;4.72;3.28;;;;;;;8.82;93.39;102908.44;5034752;28;20422;-72
2022/04/15 09:17:28;;;;;;;5.78;3.10;;;;;;;8.83;93.82;102919.00;5053848;28;20057;-72
2022/04/15 09:19:53;;;;;;;4.32;2.75;;;;;;;8.84;94.25;102914.63;5036817;28;20037;-72
2022/04/15 09:22:19;;;;;;;4.43;3.20;;;;;;;8.90;94.07;102913.69;5035645;28;20036;-72
2022/04/15 09:24:46;;;;;;;4.28;3.20;;;;;;;8.97;93.31;102915.41;5035962;28;20040;-72
2022/04/15 09:27:12;;;;;;;5.15;3.00;;;;;;;9.03;93.34;102915.38;5053571;28;20037;-71
2022/04/15 09:29:39;;;;;;;4.72;3.47;;;;;;;9.10;92.65;102924.16;5033961;28;20025;-71
2022/04/15 09:32:09;;;;;;;3.80;2.92;;;;;;;9.20;93.77;102923.22;5054570;28;20663;-70
2022/04/15 09:34:51;;;;;;;6.22;3.17;;;;;;;9.27;91.59;102924.06;5053731;28;20029;-71
2022/04/15 09:37:17;;;;;;;7.03;3.53;;;;;;;9.31;91.16;102931.06;5037385;28;20487;-71
2022/04/15 09:40:01;;;;;;;4.50;3.13;;;;;;;9.34;90.54;102931.06;5035334;28;20028;-71
2022/04/15 09:42:26;;;;;;;4.45;2.83;;;;;;;9.43;90.66;102921.31;5051550;28;20184;-72
2022/04/15 09:44:52;;;;;;;4.97;2.90;;;;;;;9.51;90.52;102922.13;5034980;28;20062;-71
2022/04/15 09:47:17;;;;;;;6.78;2.65;;;;;;;9.57;90.67;102932.66;5035071;28;20123;-72
2022/04/15 09:49:44;;;;;;;4.30;2.65;;;;;;;9.63;89.88;102922.03;5054808;28;20087;-72
2022/04/15 09:52:09;;;;;;;3.95;2.60;;;;;;;9.71;89.58;102921.06;5010845;28;20029;-72
2022/04/15 09:54:36;;;;;;;5.13;2.85;;;;;;;9.81;88.76;102924.53;5039374;28;21543;-73
2022/04/15 09:57:03;;;;;;;3.80;2.65;;;;;;;9.83;89.71;102923.63;5053268;28;20036;-73
2022/04/15 09:59:29;;;;;;;5.30;2.72;;;;;;;9.89;89.53;102927.97;5036295;28;20584;-74
2022/04/15 10:01:57;;;;;;;4.03;2.42;;;;;;;9.94;88.89;102930.56;5034928;28;20040;-74
2022/04/15 10:04:26;;;;;;;3.55;2.60;;;;;;;9.91;87.89;102926.19;5019804;28;20036;-73
2022/04/15 10:06:52;;;;;;;4.20;2.33;;;;;;;9.87;88.17;102925.31;5034786;28;20044;-73
2022/04/15 10:09:17;;;;;;;3.65;2.65;;;;;;;9.83;87.10;102931.56;5031993;28;20047;-73
2022/04/15 10:11:44;;;;;;;3.40;2.53;;;;;;;9.81;86.69;102935.09;5036915;28;20032;-73
2022/04/15 10:14:11;;;;;;;4.70;2.58;;;;;;;9.79;87.11;102927.16;5033063;28;20524;-73
2022/04/15 10:16:42;;;;;;;2.70;2.30;;;;;;;9.81;86.43;102935.97;5053023;28;20043;-74
2022/04/15 10:19:08;;;;;;;4.07;2.30;;;;;;;9.83;86.08;102931.56;5024003;28;20462;-75
2022/04/15 10:21:37;;;;;;;4.25;2.35;;;;;;;9.90;86.74;102935.00;5035605;28;20040;-74
2022/04/15 10:24:03;;;;;;;3.72;2.50;;;;;;;9.97;86.82;102927.91;5030307;28;20032;-74
2022/04/15 10:26:50;;;;;;;2.60;2.22;;;;;;;10.10;86.04;102939.25;5014568;28;20422;-74
2022/04/15 10:29:15;;;;;;;2.80;2.28;;;;;;;10.14;86.00;102941.84;5033324;28;20036;-74
2022/04/15 10:31:42;;;;;;;3.35;2.30;;;;;;;10.20;86.36;102932.97;5034245;28;20056;-74
2022/04/15 10:34:16;;;;;;;4.28;2.72;;;;;;;10.31;86.52;102935.50;5033956;28;20036;-74
2022/04/15 10:36:55;;;;;;;2.75;2.50;;;;;;;10.45;86.05;102938.00;5017169;28;20185;-74
2022/04/15 10:39:27;;;;;;;3.00;2.28;;;;;;;10.51;85.52;102937.94;5006494;28;20048;-74
2022/04/15 10:41:56;;;;;;;2.83;2.00;;;;;;;10.58;85.45;102944.91;5052613;28;20518;-75
2022/04/15 10:44:39;;;;;;;2.50;1.90;;;;;;;10.62;82.71;102945.75;5016236;28;20033;-77
2022/04/15 10:47:17;;;;;;;2.58;2.25;;;;;;;10.61;82.68;102949.31;5035090;28;20097;-75
2022/04/15 10:49:58;;;;;;;3.08;2.20;;;;;;;10.64;81.02;102946.63;5052633;28;20171;-74
2022/04/15 10:52:25;;;;;;;2.67;1.90;;;;;;;10.63;82.18;102946.66;5033263;28;20036;-76
2022/04/15 10:55:02;;;;;;;2.53;2.00;;;;;;;10.57;81.59;102945.81;5012687;28;20040;-75
2022/04/15 10:57:31;;;;;;;2.67;1.90;;;;;;;10.67;83.18;102946.59;5033093;28;20112;-72
2022/04/15 11:02:50;;;;;;;2.97;2.10;;;;;;;10.88;82.32;102946.34;5049546;28;20032;-74
2022/04/15 11:05:41;;;;;;;1.90;1.70;;;;;;;10.94;81.80;102943.59;5031744;28;20558;-73
2022/04/15 11:08:10;;;;;;;3.38;2.25;;;;;;;11.02;81.79;102948.78;5034781;28;20060;-74
2022/04/15 11:10:50;;;;;;;2.40;2.00;;;;;;;10.97;80.96;102951.50;5015323;28;20033;-73
2022/04/15 11:13:43;;;;;;;2.55;2.10;;;;;;;10.96;78.71;102947.97;5030754;28;20064;-73
2022/04/15 11:16:14;;;;;;;2.60;2.08;;;;;;;10.96;80.17;102945.31;5031525;28;20040;-74
2022/04/15 11:18:43;;;;;;;2.30;2.10;;;;;;;10.93;79.88;102939.19;5032830;28;20032;-74
2022/04/15 11:21:37;;;;;;;3.42;2.60;;;;;;;10.94;79.69;102946.25;5016051;28;20099;-74
2022/04/15 11:24:10;;;;;;;3.65;2.20;;;;;;;11.00;79.22;102948.81;5030010;28;20136;-74
2022/04/15 11:26:37;;;;;;;4.10;2.42;;;;;;;11.05;80.34;102949.63;5030171;28;20024;-74
2022/04/15 11:29:05;;;;;;;3.35;2.00;;;;;;;11.07;79.41;102952.25;5029450;28;20028;-74